Startpagina
METAR-TAF:

METAR-TAF

Vliegvelden :

Ouagadougou, Burkina Faso

Luchthaven Ouagadougou Internationaal

breedte: 12-21N, lengte: 001-31W, hoogte: 316 m

Actueel weer

Dit bericht is 19 minuten geleden gemaakt, om 15:00 UTC
Wind 7 kt uit het zuidzuidoosten, variërend tussen het oostzuidoosten en het zuiden
Temperatuur 29°C
Vochtigheid 70%
Druk 1011 hPa
Zicht 10 km of meer
Weinig wolken op 2000 ft
Verspreide wolken op 2600 ft
Weinig wolken op 3300 ft, Cumulonimbus.

METAR: DFFD 221500Z 16007KT 120V190 9999 FEW020 SCT026 FEW033CB 29/23 Q1011 TEMPO TS

Tijdstip: 15:19 (15:19 UTC)

Verwachting

Dit bericht is 4 uur en het 19 minuten geleden gemaakt, om 11:00 UTC
Verwachting geldig van 22 om 12 UTC tot 23 om 18 UTC
Wind 8 kt uit het westzuidwesten
Zicht 10 km of meer
Verspreide wolken op 2300 ft
Tijdelijke
van 22 om 14 UTC tot 22 om 24 UTC
Zicht: 4000 m
Verspreide wolken op 2000 ft
Weinig wolken op 3500 ft, Cumulonimbus.
onweer, regen

TAF: DFFD 221100Z 2212/2318 24008KT 9999 SCT023 TEMPO 2214/2224 4000 TSRA SCT020 FEW035CB

Waarnemingen en weersverwachtingen van meer dan 4000 vliegvelden (METAR en TAF).

De beschikbare stations zijn de gele en rode punten op de kaart.

Ga met uw muis naar het station om de naam te zien.

Klik dan om waarnemingen en weersverwachtingen te zien.

kaart wijzigen: klik op de groene knoppen met een zwart kruis om in te zoomen, op de groene knop met een streepje om uit te zoomen of op de groene pijlen voor aangrenzende kaarten.


METAR-TAF: